Hailey, Oklahoma
Current Conditions -  °F | °C
As of 8:15 AM on Thursday 18 Dec 2014 (Local Time) from KCUH Reporting Station
Drizzle Drizzle  
Wind Chill: 37°   Ceiling: 300
Heat Index: 37°   Visibility: 1.2mi
Dew Point: 37°   Wind: 0mph
Humidity: 100%   Direction: NA
Pressure: 30.17"   Gusts: NA
Location:  36.2329°N, 96.5662°W
Report Text: KCUH 181415Z AUTO 00000KT 1 1/4SM DZ OVC003 03/03 A3017 RMK AO2
Loading
Personal Weather Stations






























Interactive Weather Map New forecast layout! Learn more

10-Day Weather Forecast

Advertisements
Track Severe Weather on mobile